Terminal Aerodrome Forecast
Issued by NWS

Home | Current Version | Previous Version | Text Only | Print | Product List | Glossary On
Versions: 1 2 3 4 5 6 7 8 9 10 11 12
999
FTUS44 KTSA 261120
TAFRVS
TAF
KRVS 261120Z 2612/2712 35004KT P6SM VCSH OVC050
      TEMPO 2614/2618 3SM -SHRA BKN012
     FM261800 36006KT 6SM -SHRA OVC012
     FM262200 01006KT P6SM VCSH OVC012
     FM270600 03006KT 6SM -SHRA OVC012
      TEMPO 2708/2712 3SM -SHRA BR BKN007=

USA.gov is the U.S. government's official web portal to all federal, state and local government web resources and services.